createdAt,value
2022-12-24T00:01:33.378Z,64.80
2022-12-24T00:03:59.943Z,64.70
2022-12-24T00:06:26.457Z,64.80
2022-12-24T00:08:53.030Z,64.60
2022-12-24T00:11:20.216Z,64.60
2022-12-24T00:13:47.237Z,64.70
2022-12-24T00:16:13.945Z,64.60
2022-12-24T00:18:45.798Z,64.50
2022-12-24T00:21:13.692Z,64.50
2022-12-24T00:23:40.797Z,64.50
2022-12-24T00:26:07.461Z,64.50
2022-12-24T00:28:34.041Z,64.40
2022-12-24T00:31:00.678Z,64.40
2022-12-24T00:33:27.279Z,64.30
2022-12-24T00:35:53.890Z,64.30
2022-12-24T00:38:20.467Z,64.20
2022-12-24T00:40:47.118Z,64.30
2022-12-24T00:43:13.689Z,64.30
2022-12-24T00:45:40.257Z,64.20
2022-12-24T00:48:06.950Z,64.20
2022-12-24T00:50:33.515Z,64.30
2022-12-24T00:53:00.167Z,64.20
2022-12-24T00:55:26.679Z,64.20
2022-12-24T00:57:53.220Z,64.20
2022-12-24T01:00:19.908Z,64.10
2022-12-24T01:02:46.619Z,64.20
2022-12-24T01:05:13.350Z,64.20
2022-12-24T01:07:41.384Z,64.20
2022-12-24T01:10:08.328Z,64.20
2022-12-24T01:12:35.255Z,64.20
2022-12-24T01:15:01.858Z,64.10
2022-12-24T01:17:28.394Z,64.10
2022-12-24T01:19:54.919Z,64.10
2022-12-24T01:22:21.462Z,64.90
2022-12-24T01:24:48.269Z,64.10
2022-12-24T01:27:14.901Z,64.10
2022-12-24T01:29:41.771Z,64.10
2022-12-24T01:32:08.431Z,63.90
2022-12-24T01:34:35.207Z,63.90
2022-12-24T01:37:02.024Z,63.90
2022-12-24T01:39:28.816Z,63.90
2022-12-24T01:42:13.768Z,63.90
2022-12-24T01:44:43.235Z,63.90
2022-12-24T01:47:19.051Z,63.80
2022-12-24T01:49:51.655Z,63.80
2022-12-24T01:52:29.835Z,63.90
2022-12-24T01:55:05.043Z,63.90
2022-12-24T01:57:39.594Z,63.80
2022-12-24T02:00:10.771Z,63.80
2022-12-24T02:02:40.512Z,63.80
2022-12-24T02:05:22.367Z,63.70
2022-12-24T02:07:49.817Z,63.70
2022-12-24T02:10:16.803Z,63.80
2022-12-24T02:12:44.829Z,63.70
2022-12-24T02:15:14.471Z,63.70
2022-12-24T02:18:20.553Z,63.70
2022-12-24T02:21:22.387Z,63.70
2022-12-24T02:23:57.314Z,63.70
2022-12-24T02:26:46.540Z,63.80
2022-12-24T02:29:46.018Z,63.70
2022-12-24T02:32:24.161Z,63.70
2022-12-24T02:35:07.982Z,63.70
2022-12-24T02:37:43.843Z,63.70
2022-12-24T02:40:36.259Z,63.70
2022-12-24T02:43:04.692Z,63.60
2022-12-24T02:45:34.380Z,63.70
2022-12-24T02:48:01.592Z,63.50
2022-12-24T02:50:28.632Z,63.60
2022-12-24T02:52:55.307Z,63.60
2022-12-24T02:55:27.685Z,63.50
2022-12-24T02:58:03.088Z,63.50
2022-12-24T03:00:43.017Z,63.60
2022-12-24T03:03:18.300Z,63.60
2022-12-24T03:05:50.370Z,63.50
2022-12-24T03:08:17.422Z,63.50
2022-12-24T03:10:53.594Z,63.50
2022-12-24T03:13:21.952Z,63.50
2022-12-24T03:15:50.241Z,63.50
2022-12-24T03:18:21.127Z,63.50
2022-12-24T03:21:10.703Z,63.50
2022-12-24T03:23:38.087Z,63.60
2022-12-24T03:26:08.838Z,63.60
2022-12-24T03:28:38.818Z,63.60
2022-12-24T03:31:07.014Z,63.60
2022-12-24T03:33:34.604Z,63.60
2022-12-24T03:36:02.236Z,63.60
2022-12-24T03:38:28.988Z,63.60
2022-12-24T03:40:55.611Z,63.60
2022-12-24T03:43:22.166Z,63.50
2022-12-24T03:45:48.788Z,63.60
2022-12-24T03:48:15.445Z,63.60
2022-12-24T03:50:42.156Z,63.50
2022-12-24T03:53:08.810Z,63.60
2022-12-24T03:55:35.424Z,63.60
2022-12-24T03:58:02.013Z,63.60
2022-12-24T04:00:28.602Z,63.50
2022-12-24T04:02:55.208Z,63.50
2022-12-24T04:05:21.992Z,63.60
2022-12-24T04:07:48.614Z,63.60
2022-12-24T04:10:16.693Z,63.60
2022-12-24T04:12:43.335Z,63.60
2022-12-24T04:15:10.920Z,63.60
2022-12-24T04:17:37.701Z,63.60
2022-12-24T04:20:05.381Z,63.60
2022-12-24T04:22:32.606Z,63.70
2022-12-24T04:24:59.289Z,63.70
2022-12-24T04:27:30.455Z,63.60
2022-12-24T04:29:57.833Z,63.80
2022-12-24T04:32:26.540Z,63.60
2022-12-24T04:34:53.320Z,63.70
2022-12-24T04:37:20.111Z,63.60
2022-12-24T04:39:46.694Z,63.60
2022-12-24T04:42:13.388Z,63.60
2022-12-24T04:44:40.031Z,63.60
2022-12-24T04:47:06.733Z,63.60
2022-12-24T04:49:33.326Z,63.60
2022-12-24T04:51:59.973Z,63.60
2022-12-24T04:54:26.902Z,63.60
2022-12-24T04:56:53.599Z,63.60
2022-12-24T04:59:20.316Z,63.50
2022-12-24T05:01:47.059Z,63.60
2022-12-24T05:04:13.802Z,63.60
2022-12-24T05:06:40.462Z,63.50
2022-12-24T05:09:07.059Z,63.60
2022-12-24T05:11:33.753Z,63.60
2022-12-24T05:14:00.400Z,63.60
2022-12-24T05:16:27.139Z,63.50
2022-12-24T05:18:53.913Z,63.60
2022-12-24T05:21:23.274Z,63.50
2022-12-24T05:24:09.431Z,63.50
2022-12-24T05:26:38.489Z,63.60
2022-12-24T05:29:06.562Z,63.40
2022-12-24T05:31:33.966Z,63.50
2022-12-24T05:34:01.641Z,63.50
2022-12-24T05:36:28.607Z,63.50
2022-12-24T05:38:55.326Z,63.60
2022-12-24T05:41:22.282Z,63.50
2022-12-24T05:43:49.145Z,63.60
2022-12-24T05:46:18.858Z,63.50
2022-12-24T05:48:46.407Z,63.50
2022-12-24T05:51:15.013Z,63.40
2022-12-24T05:53:41.916Z,63.40
2022-12-24T05:56:11.425Z,63.40
2022-12-24T05:58:38.967Z,63.50
2022-12-24T06:01:07.281Z,63.50
2022-12-24T06:03:34.379Z,63.40
2022-12-24T06:06:06.318Z,63.40
2022-12-24T06:08:33.975Z,63.40
2022-12-24T06:11:03.276Z,63.40
2022-12-24T06:13:31.172Z,63.30
2022-12-24T06:15:59.733Z,63.40
2022-12-24T06:18:26.689Z,63.30
2022-12-24T06:20:54.704Z,63.30
2022-12-24T06:23:22.209Z,63.30
2022-12-24T06:25:48.908Z,63.90
2022-12-24T06:28:16.203Z,63.30
2022-12-24T06:30:47.589Z,63.30
2022-12-24T06:33:14.668Z,63.20
2022-12-24T06:35:41.521Z,63.20
2022-12-24T06:38:08.281Z,63.20
2022-12-24T06:40:34.928Z,63.20
2022-12-24T06:43:01.557Z,63.30
2022-12-24T06:45:28.243Z,63.20
2022-12-24T06:47:54.816Z,63.20
2022-12-24T06:50:21.388Z,63.30
2022-12-24T06:52:48.074Z,63.10
2022-12-24T06:55:15.040Z,63.20
2022-12-24T06:57:41.812Z,63.30
2022-12-24T07:00:11.011Z,63.20
2022-12-24T07:02:44.466Z,63.30
2022-12-24T07:05:13.014Z,63.20
2022-12-24T07:07:41.895Z,63.10
2022-12-24T07:10:11.803Z,63.10
2022-12-24T07:12:38.433Z,63.10
2022-12-24T07:15:05.710Z,63.10
2022-12-24T07:17:32.503Z,63.10
2022-12-24T07:19:59.204Z,63.20
2022-12-24T07:22:25.886Z,63.20
2022-12-24T07:24:52.671Z,63.10
2022-12-24T07:27:19.294Z,63.00
2022-12-24T07:29:45.991Z,63.10
2022-12-24T07:32:12.564Z,63.10
2022-12-24T07:34:39.705Z,63.10
2022-12-24T07:37:07.579Z,63.10
2022-12-24T07:39:34.240Z,63.10
2022-12-24T07:42:01.013Z,63.10
2022-12-24T07:44:27.631Z,63.20
2022-12-24T07:46:54.321Z,63.10
2022-12-24T07:49:20.962Z,63.20
2022-12-24T07:51:47.609Z,63.10
2022-12-24T07:54:14.597Z,63.10
2022-12-24T07:56:42.811Z,63.20
2022-12-24T07:59:14.277Z,63.10
2022-12-24T08:01:41.589Z,63.10
2022-12-24T08:04:08.498Z,63.10
2022-12-24T08:06:35.180Z,62.90
2022-12-24T08:09:01.782Z,63.00
2022-12-24T08:11:28.551Z,63.10
2022-12-24T08:13:55.203Z,63.00
2022-12-24T08:16:22.136Z,63.00
2022-12-24T08:18:48.854Z,63.00
2022-12-24T08:21:15.742Z,63.00
2022-12-24T08:23:42.412Z,63.10
2022-12-24T08:26:10.745Z,63.10
2022-12-24T08:28:38.082Z,63.00
2022-12-24T08:31:05.453Z,62.90
2022-12-24T08:33:32.210Z,62.90
2022-12-24T08:36:00.838Z,62.90
2022-12-24T08:38:27.574Z,62.90
2022-12-24T08:40:55.463Z,63.00
2022-12-24T08:43:22.894Z,63.00
2022-12-24T08:45:49.947Z,63.00
2022-12-24T08:48:17.318Z,63.00
2022-12-24T08:50:44.164Z,62.90
2022-12-24T08:53:11.423Z,63.00
2022-12-24T08:55:38.348Z,63.00
2022-12-24T08:58:04.966Z,62.90
2022-12-24T09:00:31.683Z,62.90
2022-12-24T09:02:58.592Z,62.90
2022-12-24T09:05:26.054Z,62.80
2022-12-24T09:07:52.951Z,62.90
2022-12-24T09:10:19.678Z,62.90
2022-12-24T09:12:46.575Z,62.90
2022-12-24T09:15:14.134Z,62.80
2022-12-24T09:17:41.225Z,62.80
2022-12-24T09:20:08.563Z,62.80
2022-12-24T09:22:37.639Z,62.90
2022-12-24T09:25:06.147Z,62.90
2022-12-24T09:27:32.923Z,62.80
2022-12-24T09:29:59.583Z,62.80
2022-12-24T09:32:26.217Z,62.80
2022-12-24T09:34:53.355Z,62.80
2022-12-24T09:37:20.101Z,63.60
2022-12-24T09:39:46.694Z,62.80
2022-12-24T09:42:25.238Z,62.70
2022-12-24T09:45:04.191Z,62.70
2022-12-24T09:47:41.146Z,62.70
2022-12-24T09:50:26.707Z,62.70
2022-12-24T09:52:54.836Z,62.70
2022-12-24T09:55:28.268Z,62.80
2022-12-24T09:57:58.013Z,62.70
2022-12-24T10:00:36.464Z,62.80
2022-12-24T10:03:14.505Z,62.70
2022-12-24T10:05:58.932Z,62.80
2022-12-24T10:08:53.012Z,62.70
2022-12-24T10:11:46.170Z,62.70
2022-12-24T10:14:30.394Z,62.70
2022-12-24T10:17:22.141Z,62.70
2022-12-24T10:20:23.967Z,62.60
2022-12-24T10:22:57.327Z,62.70
2022-12-24T10:25:32.932Z,62.60
2022-12-24T10:28:02.848Z,62.70
2022-12-24T10:30:29.850Z,62.60
2022-12-24T10:32:56.501Z,62.60
2022-12-24T10:35:28.992Z,62.60
2022-12-24T10:37:57.842Z,62.50
2022-12-24T10:40:45.547Z,62.40
2022-12-24T10:43:23.593Z,62.40
2022-12-24T10:45:57.342Z,62.50
2022-12-24T10:48:50.755Z,62.50
2022-12-24T10:51:33.414Z,62.40
2022-12-24T10:54:08.263Z,62.40
2022-12-24T10:56:50.284Z,62.30
2022-12-24T10:59:33.732Z,62.40
2022-12-24T11:02:01.489Z,62.40
2022-12-24T11:04:33.015Z,62.40
2022-12-24T11:07:01.487Z,62.40
2022-12-24T11:09:34.191Z,62.30
2022-12-24T11:12:08.630Z,62.30
2022-12-24T11:14:38.688Z,62.30
2022-12-24T11:17:05.942Z,62.30
2022-12-24T11:19:35.475Z,62.30
2022-12-24T11:22:07.915Z,62.20
2022-12-24T11:24:37.862Z,62.20
2022-12-24T11:27:24.718Z,62.20
2022-12-24T11:29:51.661Z,62.10
2022-12-24T11:32:21.859Z,62.20
2022-12-24T11:34:49.091Z,62.10
2022-12-24T11:37:24.134Z,62.20
2022-12-24T11:39:53.516Z,62.10
2022-12-24T11:42:31.151Z,62.20
2022-12-24T11:45:01.788Z,62.20
2022-12-24T11:47:40.233Z,62.10
2022-12-24T11:50:31.884Z,62.10
2022-12-24T11:53:04.653Z,62.10
2022-12-24T11:55:51.286Z,62.10
2022-12-24T11:58:33.750Z,62.10
2022-12-24T12:01:15.541Z,62.10
2022-12-24T12:03:48.265Z,62.10
2022-12-24T12:06:24.819Z,62.00
2022-12-24T12:09:01.380Z,62.10
2022-12-24T12:11:29.981Z,62.10
2022-12-24T12:13:59.999Z,62.10
2022-12-24T12:17:06.656Z,62.10
2022-12-24T12:19:46.852Z,62.00
2022-12-24T12:22:40.156Z,62.00
2022-12-24T12:25:29.772Z,62.10
2022-12-24T12:27:58.035Z,62.00
2022-12-24T12:30:26.361Z,62.10
2022-12-24T12:33:11.158Z,62.10
2022-12-24T12:35:41.686Z,62.00
2022-12-24T12:38:20.143Z,62.00
2022-12-24T12:41:24.055Z,62.00
2022-12-24T12:44:09.551Z,62.00
2022-12-24T12:46:42.042Z,62.00
2022-12-24T12:49:33.950Z,62.00
2022-12-24T12:52:06.623Z,61.90
2022-12-24T12:54:58.042Z,62.00
2022-12-24T12:57:28.546Z,62.00
2022-12-24T13:00:05.694Z,62.00
2022-12-24T13:02:43.993Z,62.00
2022-12-24T13:05:40.704Z,62.00
2022-12-24T13:08:31.728Z,62.00
2022-12-24T13:11:10.396Z,61.90
2022-12-24T13:13:55.654Z,61.90
2022-12-24T13:16:47.133Z,61.90
2022-12-24T13:19:19.612Z,62.00
2022-12-24T13:21:48.916Z,61.90
2022-12-24T13:24:22.832Z,62.00
2022-12-24T13:27:19.111Z,61.90
2022-12-24T13:30:10.532Z,62.00
2022-12-24T13:32:38.789Z,61.90
2022-12-24T13:35:30.749Z,61.80
2022-12-24T13:38:33.835Z,61.80
2022-12-24T13:41:41.845Z,61.90
2022-12-24T13:44:13.469Z,61.90
2022-12-24T13:47:15.909Z,61.80
2022-12-24T13:49:45.780Z,61.80
2022-12-24T13:52:12.381Z,61.80
2022-12-24T13:54:43.366Z,61.80
2022-12-24T13:58:07.622Z,61.80
2022-12-24T14:00:45.376Z,61.80
2022-12-24T14:03:14.779Z,61.80
2022-12-24T14:05:44.406Z,61.80
2022-12-24T14:08:16.489Z,61.80
2022-12-24T14:11:00.028Z,61.80
2022-12-24T14:13:38.513Z,61.80
2022-12-24T14:16:19.982Z,61.80
2022-12-24T14:18:57.593Z,61.80
2022-12-24T14:21:29.769Z,61.80
2022-12-24T14:23:59.778Z,62.10
2022-12-24T14:26:35.964Z,61.80
2022-12-24T14:29:07.574Z,61.80
2022-12-24T14:31:34.346Z,61.80
2022-12-24T14:34:13.656Z,61.90
2022-12-24T14:36:44.330Z,61.80
2022-12-24T14:39:24.428Z,61.90
2022-12-24T14:42:04.648Z,61.80
2022-12-24T14:45:03.302Z,61.80
2022-12-24T14:48:04.032Z,61.80
2022-12-24T14:50:51.027Z,61.80
2022-12-24T14:53:28.403Z,61.80
2022-12-24T14:55:55.033Z,61.70
2022-12-24T14:58:39.791Z,61.70
2022-12-24T15:01:24.975Z,61.80
2022-12-24T15:04:09.957Z,61.70
2022-12-24T15:06:39.843Z,61.80
2022-12-24T15:09:16.600Z,61.80
2022-12-24T15:11:48.179Z,61.80
2022-12-24T15:14:16.079Z,61.70
2022-12-24T15:16:52.184Z,61.80
2022-12-24T15:19:38.009Z,61.70
2022-12-24T15:22:10.765Z,62.50
2022-12-24T15:24:46.246Z,61.70
2022-12-24T15:27:25.475Z,61.70
2022-12-24T15:29:55.593Z,61.70
2022-12-24T15:32:22.879Z,61.80
2022-12-24T15:34:52.352Z,61.70
2022-12-24T15:37:21.606Z,61.70
2022-12-24T15:40:07.672Z,61.70
2022-12-24T15:42:35.131Z,61.80
2022-12-24T15:45:07.943Z,61.70
2022-12-24T15:47:38.480Z,61.70
2022-12-24T15:50:16.245Z,61.70
2022-12-24T15:52:43.884Z,61.70
2022-12-24T15:55:28.521Z,61.70
2022-12-24T15:57:55.307Z,61.70
2022-12-24T16:00:24.814Z,61.70
2022-12-24T16:02:52.106Z,61.70
2022-12-24T16:05:22.403Z,61.60
2022-12-24T16:08:22.500Z,61.70
2022-12-24T16:11:07.453Z,61.70
2022-12-24T16:13:40.274Z,61.70
2022-12-24T16:16:13.994Z,61.70
2022-12-24T16:18:46.012Z,61.60
2022-12-24T16:21:39.478Z,61.70
2022-12-24T16:24:10.904Z,62.40
2022-12-24T16:26:38.422Z,61.70
2022-12-24T16:29:05.008Z,61.60
2022-12-24T16:31:38.143Z,61.60
2022-12-24T16:34:05.441Z,61.60
2022-12-24T16:36:32.383Z,61.50
2022-12-24T16:39:17.526Z,61.60
2022-12-24T16:42:03.024Z,61.60
2022-12-24T16:44:29.685Z,61.60
2022-12-24T16:46:58.493Z,61.60
2022-12-24T16:49:25.235Z,61.60
2022-12-24T16:51:51.966Z,61.60
2022-12-24T16:54:18.913Z,61.50
2022-12-24T16:56:46.116Z,61.60
2022-12-24T16:59:21.442Z,61.60
2022-12-24T17:01:49.047Z,61.60
2022-12-24T17:04:17.236Z,61.50
2022-12-24T17:06:44.450Z,61.50
2022-12-24T17:09:12.140Z,61.60
2022-12-24T17:11:38.865Z,61.60
2022-12-24T17:14:08.379Z,61.50
2022-12-24T17:16:37.387Z,61.50
2022-12-24T17:19:04.897Z,61.50
2022-12-24T17:21:32.084Z,61.60
2022-12-24T17:23:58.715Z,61.50
2022-12-24T17:26:25.380Z,61.50
2022-12-24T17:28:56.235Z,61.50
2022-12-24T17:31:24.315Z,61.50
2022-12-24T17:33:52.390Z,61.50
2022-12-24T17:36:19.993Z,61.50
2022-12-24T17:38:46.725Z,61.50
2022-12-24T17:41:16.175Z,61.40
2022-12-24T17:43:43.154Z,61.50
2022-12-24T17:46:13.128Z,61.40
2022-12-24T17:48:39.762Z,61.40
2022-12-24T17:51:14.368Z,61.50
2022-12-24T17:53:42.674Z,61.40
2022-12-24T17:56:12.378Z,61.50
2022-12-24T17:58:43.349Z,61.50
2022-12-24T18:01:12.921Z,61.40
2022-12-24T18:03:39.855Z,61.50
2022-12-24T18:06:08.632Z,61.50
2022-12-24T18:08:35.786Z,61.40
2022-12-24T18:11:32.564Z,61.40
2022-12-24T18:14:01.210Z,61.50
2022-12-24T18:16:33.976Z,61.40
2022-12-24T18:19:01.310Z,61.40
2022-12-24T18:21:30.349Z,61.40
2022-12-24T18:23:57.573Z,61.40
2022-12-24T18:26:26.782Z,61.40
2022-12-24T18:28:58.969Z,61.40
2022-12-24T18:31:26.854Z,61.40
2022-12-24T18:33:55.773Z,61.40
2022-12-24T18:36:23.113Z,61.40
2022-12-24T18:38:49.987Z,61.40
2022-12-24T18:41:19.674Z,61.40
2022-12-24T18:43:46.511Z,61.40
2022-12-24T18:46:15.783Z,61.40
2022-12-24T18:48:42.645Z,61.40
2022-12-24T18:51:10.730Z,61.40
2022-12-24T18:53:37.746Z,61.40
2022-12-24T18:56:38.265Z,61.40
2022-12-24T18:59:04.891Z,61.40
2022-12-24T19:01:34.365Z,61.40
2022-12-24T19:04:01.691Z,61.40
2022-12-24T19:06:28.409Z,61.40
2022-12-24T19:08:57.818Z,61.40
2022-12-24T19:11:27.562Z,61.40
2022-12-24T19:13:54.190Z,62.10
2022-12-24T19:16:21.600Z,61.40
2022-12-24T19:18:48.629Z,61.40
2022-12-24T19:21:17.092Z,61.40
2022-12-24T19:23:44.344Z,61.40
2022-12-24T19:26:12.322Z,61.40
2022-12-24T19:28:39.014Z,61.40
2022-12-24T19:31:11.267Z,61.40
2022-12-24T19:33:44.188Z,61.50
2022-12-24T19:36:14.537Z,61.40
2022-12-24T19:38:41.446Z,61.40
2022-12-24T19:41:09.936Z,61.40
2022-12-24T19:43:38.688Z,61.30
2022-12-24T19:46:05.626Z,61.40
2022-12-24T19:48:32.470Z,61.30
2022-12-24T19:51:07.843Z,61.30
2022-12-24T19:53:35.276Z,61.20
2022-12-24T19:56:02.138Z,61.30
2022-12-24T19:58:29.592Z,61.30
2022-12-24T20:00:56.361Z,61.30
2022-12-24T20:03:23.058Z,61.40
2022-12-24T20:05:49.724Z,61.30
2022-12-24T20:08:16.491Z,61.40
2022-12-24T20:10:44.240Z,61.30
2022-12-24T20:13:11.157Z,61.30
2022-12-24T20:15:40.031Z,61.30
2022-12-24T20:18:06.992Z,61.30
2022-12-24T20:20:33.651Z,61.20
2022-12-24T20:23:00.794Z,61.30
2022-12-24T20:25:27.679Z,61.30
2022-12-24T20:27:54.366Z,61.30
2022-12-24T20:30:21.002Z,61.30
2022-12-24T20:32:47.772Z,61.20
2022-12-24T20:35:14.552Z,61.20
2022-12-24T20:37:46.279Z,61.20
2022-12-24T20:40:13.904Z,61.20
2022-12-24T20:42:40.811Z,61.20
2022-12-24T20:45:07.833Z,61.20
2022-12-24T20:47:34.714Z,61.20
2022-12-24T20:50:01.436Z,61.10
2022-12-24T20:52:28.039Z,61.20
2022-12-24T20:54:54.712Z,61.20
2022-12-24T20:57:25.895Z,61.20
2022-12-24T20:59:54.498Z,61.10
2022-12-24T21:02:22.292Z,61.20
2022-12-24T21:04:49.098Z,61.10
2022-12-24T21:07:15.691Z,61.20
2022-12-24T21:09:42.361Z,61.10
2022-12-24T21:12:30.801Z,61.10
2022-12-24T21:14:57.539Z,61.20
2022-12-24T21:17:24.351Z,61.10
2022-12-24T21:19:51.024Z,61.20
2022-12-24T21:22:17.785Z,61.20
2022-12-24T21:24:44.427Z,61.10
2022-12-24T21:27:11.041Z,61.10
2022-12-24T21:29:37.637Z,61.10
2022-12-24T21:32:04.310Z,61.20
2022-12-24T21:34:30.911Z,61.10
2022-12-24T21:36:57.570Z,61.10
2022-12-24T21:39:24.178Z,61.10
2022-12-24T21:41:50.833Z,61.10
2022-12-24T21:44:18.120Z,61.10
2022-12-24T21:46:44.840Z,61.20
2022-12-24T21:49:30.128Z,61.10
2022-12-24T21:51:58.329Z,61.10
2022-12-24T21:54:28.424Z,61.10
2022-12-24T21:57:16.984Z,61.10
2022-12-24T21:59:44.192Z,61.10
2022-12-24T22:02:15.103Z,61.10
2022-12-24T22:04:42.636Z,61.00
2022-12-24T22:07:42.117Z,61.10
2022-12-24T22:10:28.550Z,61.10
2022-12-24T22:12:55.590Z,61.10
2022-12-24T22:15:22.217Z,61.10
2022-12-24T22:17:48.941Z,61.10
2022-12-24T22:20:15.676Z,61.10
2022-12-24T22:22:42.301Z,61.80
2022-12-24T22:25:09.164Z,61.10
2022-12-24T22:27:35.887Z,61.10
2022-12-24T22:30:02.533Z,61.10
2022-12-24T22:32:29.132Z,61.10
2022-12-24T22:34:55.748Z,61.00
2022-12-24T22:37:22.488Z,61.00
2022-12-24T22:39:49.206Z,61.10
2022-12-24T22:42:16.797Z,61.00
2022-12-24T22:44:43.496Z,61.00
2022-12-24T22:47:10.129Z,61.00
2022-12-24T22:49:37.614Z,61.00
2022-12-24T22:52:04.434Z,61.00
2022-12-24T22:54:31.444Z,61.00
2022-12-24T22:56:58.146Z,61.00
2022-12-24T22:59:24.861Z,60.90
2022-12-24T23:01:52.906Z,61.00
2022-12-24T23:04:20.006Z,61.00
2022-12-24T23:06:46.668Z,60.90
2022-12-24T23:09:15.882Z,61.00
2022-12-24T23:11:43.473Z,61.00
2022-12-24T23:14:39.438Z,61.00
2022-12-24T23:17:06.874Z,61.00
2022-12-24T23:19:34.242Z,61.00
2022-12-24T23:22:02.160Z,61.00
2022-12-24T23:24:29.707Z,61.00
2022-12-24T23:26:57.337Z,61.00
2022-12-24T23:29:24.461Z,61.00
2022-12-24T23:31:51.175Z,61.00
2022-12-24T23:34:17.965Z,60.90
2022-12-24T23:36:44.646Z,61.00
2022-12-24T23:39:11.536Z,60.90
2022-12-24T23:41:38.186Z,61.00
2022-12-24T23:44:05.079Z,60.90
2022-12-24T23:46:31.973Z,60.90
2022-12-24T23:48:58.864Z,60.90
2022-12-24T23:51:27.310Z,61.00
2022-12-24T23:53:56.227Z,61.00
2022-12-24T23:56:25.022Z,60.90
2022-12-24T23:58:51.911Z,60.90
